sensor_id;sensor_type;location;lat;lon;timestamp;P1;durP1;ratioP1;P2;durP2;ratioP2
5153;SDS011;2595;53.584;10.084;2023-03-01T00:01:12;22.17;;;13.93;;
5153;SDS011;2595;53.584;10.084;2023-03-01T00:03:39;23.07;;;15.43;;
5153;SDS011;2595;53.584;10.084;2023-03-01T00:06:05;18.77;;;13.77;;
5153;SDS011;2595;53.584;10.084;2023-03-01T00:08:31;24.07;;;14.07;;
5153;SDS011;2595;53.584;10.084;2023-03-01T00:11:14;20.93;;;13.07;;
5153;SDS011;2595;53.584;10.084;2023-03-01T00:13:43;19.90;;;13.03;;
5153;SDS011;2595;53.584;10.084;2023-03-01T00:16:10;22.20;;;14.30;;
5153;SDS011;2595;53.584;10.084;2023-03-01T00:18:38;16.97;;;13.57;;
5153;SDS011;2595;53.584;10.084;2023-03-01T00:21:04;17.53;;;13.20;;
5153;SDS011;2595;53.584;10.084;2023-03-01T00:23:30;22.40;;;13.10;;
5153;SDS011;2595;53.584;10.084;2023-03-01T00:25:56;18.83;;;14.00;;
5153;SDS011;2595;53.584;10.084;2023-03-01T00:28:22;25.70;;;14.97;;
5153;SDS011;2595;53.584;10.084;2023-03-01T00:30:48;21.67;;;13.77;;
5153;SDS011;2595;53.584;10.084;2023-03-01T00:33:13;16.30;;;12.20;;
5153;SDS011;2595;53.584;10.084;2023-03-01T00:35:39;22.03;;;12.87;;
5153;SDS011;2595;53.584;10.084;2023-03-01T00:38:05;16.30;;;13.73;;
5153;SDS011;2595;53.584;10.084;2023-03-01T00:40:32;17.67;;;14.10;;
5153;SDS011;2595;53.584;10.084;2023-03-01T00:42:58;20.70;;;13.33;;
5153;SDS011;2595;53.584;10.084;2023-03-01T00:45:24;19.90;;;13.80;;
5153;SDS011;2595;53.584;10.084;2023-03-01T00:47:50;14.20;;;12.17;;
5153;SDS011;2595;53.584;10.084;2023-03-01T00:50:16;21.43;;;12.60;;
5153;SDS011;2595;53.584;10.084;2023-03-01T00:52:42;20.90;;;14.40;;
5153;SDS011;2595;53.584;10.084;2023-03-01T00:55:09;18.13;;;12.60;;
5153;SDS011;2595;53.584;10.084;2023-03-01T00:57:35;16.93;;;13.53;;
5153;SDS011;2595;53.584;10.084;2023-03-01T01:00:01;15.13;;;13.57;;
5153;SDS011;2595;53.584;10.084;2023-03-01T01:02:29;13.33;;;12.07;;
5153;SDS011;2595;53.584;10.084;2023-03-01T01:04:54;31.73;;;14.10;;
5153;SDS011;2595;53.584;10.084;2023-03-01T01:07:20;18.60;;;13.00;;
5153;SDS011;2595;53.584;10.084;2023-03-01T01:09:45;20.80;;;13.20;;
5153;SDS011;2595;53.584;10.084;2023-03-01T01:12:11;15.23;;;13.40;;
5153;SDS011;2595;53.584;10.084;2023-03-01T01:14:37;17.50;;;12.30;;
5153;SDS011;2595;53.584;10.084;2023-03-01T01:17:03;15.90;;;13.13;;
5153;SDS011;2595;53.584;10.084;2023-03-01T01:19:29;15.03;;;13.10;;
5153;SDS011;2595;53.584;10.084;2023-03-01T01:21:54;13.57;;;12.07;;
5153;SDS011;2595;53.584;10.084;2023-03-01T01:24:20;20.53;;;12.83;;
5153;SDS011;2595;53.584;10.084;2023-03-01T01:26:45;18.00;;;14.50;;
5153;SDS011;2595;53.584;10.084;2023-03-01T01:29:11;23.63;;;13.77;;
5153;SDS011;2595;53.584;10.084;2023-03-01T01:31:37;17.73;;;13.53;;
5153;SDS011;2595;53.584;10.084;2023-03-01T01:34:05;20.40;;;14.13;;
5153;SDS011;2595;53.584;10.084;2023-03-01T01:36:32;15.50;;;12.50;;
5153;SDS011;2595;53.584;10.084;2023-03-01T01:38:59;21.60;;;14.07;;
5153;SDS011;2595;53.584;10.084;2023-03-01T01:41:26;16.33;;;12.50;;
5153;SDS011;2595;53.584;10.084;2023-03-01T01:47:04;17.83;;;13.60;;
5153;SDS011;2595;53.584;10.084;2023-03-01T01:49:41;19.67;;;13.03;;
5153;SDS011;2595;53.584;10.084;2023-03-01T01:54:48;15.10;;;12.03;;
5153;SDS011;2595;53.584;10.084;2023-03-01T01:57:19;17.13;;;12.30;;
5153;SDS011;2595;53.584;10.084;2023-03-01T01:59:58;16.40;;;13.27;;
5153;SDS011;2595;53.584;10.084;2023-03-01T02:02:25;20.10;;;11.83;;
5153;SDS011;2595;53.584;10.084;2023-03-01T02:04:53;16.80;;;12.40;;
5153;SDS011;2595;53.584;10.084;2023-03-01T02:07:28;18.97;;;12.37;;
5153;SDS011;2595;53.584;10.084;2023-03-01T02:09:55;18.63;;;13.00;;
5153;SDS011;2595;53.584;10.084;2023-03-01T02:12:23;12.40;;;11.07;;
5153;SDS011;2595;53.584;10.084;2023-03-01T02:14:49;16.10;;;11.97;;
5153;SDS011;2595;53.584;10.084;2023-03-01T02:17:15;19.83;;;13.30;;
5153;SDS011;2595;53.584;10.084;2023-03-01T02:22:32;17.63;;;12.47;;
5153;SDS011;2595;53.584;10.084;2023-03-01T02:27:59;15.00;;;11.30;;
5153;SDS011;2595;53.584;10.084;2023-03-01T02:30:41;16.20;;;12.27;;
5153;SDS011;2595;53.584;10.084;2023-03-01T02:33:27;15.70;;;12.03;;
5153;SDS011;2595;53.584;10.084;2023-03-01T02:35:54;17.60;;;12.60;;
5153;SDS011;2595;53.584;10.084;2023-03-01T02:38:21;16.73;;;12.90;;
5153;SDS011;2595;53.584;10.084;2023-03-01T02:40:48;14.07;;;12.43;;
5153;SDS011;2595;53.584;10.084;2023-03-01T02:43:16;15.97;;;12.37;;
5153;SDS011;2595;53.584;10.084;2023-03-01T02:45:51;19.60;;;11.67;;
5153;SDS011;2595;53.584;10.084;2023-03-01T02:48:18;13.90;;;12.30;;
5153;SDS011;2595;53.584;10.084;2023-03-01T02:50:50;14.60;;;12.40;;
5153;SDS011;2595;53.584;10.084;2023-03-01T02:53:33;13.63;;;11.13;;
5153;SDS011;2595;53.584;10.084;2023-03-01T02:56:12;15.23;;;11.50;;
5153;SDS011;2595;53.584;10.084;2023-03-01T02:58:40;12.37;;;11.13;;
5153;SDS011;2595;53.584;10.084;2023-03-01T03:01:11;12.03;;;10.80;;
5153;SDS011;2595;53.584;10.084;2023-03-01T03:03:39;13.20;;;11.63;;
5153;SDS011;2595;53.584;10.084;2023-03-01T03:06:05;13.17;;;10.60;;
5153;SDS011;2595;53.584;10.084;2023-03-01T03:08:31;14.40;;;12.83;;
5153;SDS011;2595;53.584;10.084;2023-03-01T03:10:57;13.70;;;12.23;;
5153;SDS011;2595;53.584;10.084;2023-03-01T03:13:22;12.13;;;11.00;;
5153;SDS011;2595;53.584;10.084;2023-03-01T03:15:53;18.60;;;11.67;;
5153;SDS011;2595;53.584;10.084;2023-03-01T03:18:22;16.23;;;11.60;;
5153;SDS011;2595;53.584;10.084;2023-03-01T03:20:51;11.17;;;10.10;;
5153;SDS011;2595;53.584;10.084;2023-03-01T03:23:19;13.80;;;10.93;;
5153;SDS011;2595;53.584;10.084;2023-03-01T03:25:48;13.33;;;11.00;;
5153;SDS011;2595;53.584;10.084;2023-03-01T03:28:15;11.53;;;10.43;;
5153;SDS011;2595;53.584;10.084;2023-03-01T03:30:41;12.97;;;11.17;;
5153;SDS011;2595;53.584;10.084;2023-03-01T03:33:07;12.10;;;10.47;;
5153;SDS011;2595;53.584;10.084;2023-03-01T03:35:38;17.80;;;12.27;;
5153;SDS011;2595;53.584;10.084;2023-03-01T03:38:07;15.33;;;11.40;;
5153;SDS011;2595;53.584;10.084;2023-03-01T03:40:40;12.17;;;10.97;;
5153;SDS011;2595;53.584;10.084;2023-03-01T03:43:09;11.87;;;10.57;;
5153;SDS011;2595;53.584;10.084;2023-03-01T03:45:37;17.63;;;11.83;;
5153;SDS011;2595;53.584;10.084;2023-03-01T03:48:04;14.97;;;11.03;;
5153;SDS011;2595;53.584;10.084;2023-03-01T03:50:31;12.80;;;11.60;;
5153;SDS011;2595;53.584;10.084;2023-03-01T03:52:57;13.90;;;10.67;;
5153;SDS011;2595;53.584;10.084;2023-03-01T03:55:25;13.50;;;10.90;;
5153;SDS011;2595;53.584;10.084;2023-03-01T03:57:56;11.60;;;9.57;;
5153;SDS011;2595;53.584;10.084;2023-03-01T04:00:26;15.23;;;10.87;;
5153;SDS011;2595;53.584;10.084;2023-03-01T04:02:52;10.77;;;9.70;;
5153;SDS011;2595;53.584;10.084;2023-03-01T04:05:21;12.50;;;10.10;;
5153;SDS011;2595;53.584;10.084;2023-03-01T04:07:47;11.63;;;10.00;;
5153;SDS011;2595;53.584;10.084;2023-03-01T04:10:14;16.23;;;11.20;;
5153;SDS011;2595;53.584;10.084;2023-03-01T04:12:42;12.30;;;10.10;;
5153;SDS011;2595;53.584;10.084;2023-03-01T04:15:08;12.27;;;11.03;;
5153;SDS011;2595;53.584;10.084;2023-03-01T04:17:41;13.77;;;12.30;;
5153;SDS011;2595;53.584;10.084;2023-03-01T04:20:09;17.83;;;9.93;;
5153;SDS011;2595;53.584;10.084;2023-03-01T04:22:38;14.87;;;10.67;;
5153;SDS011;2595;53.584;10.084;2023-03-01T04:25:04;11.77;;;9.73;;
5153;SDS011;2595;53.584;10.084;2023-03-01T04:27:32;12.70;;;9.20;;
5153;SDS011;2595;53.584;10.084;2023-03-01T04:29:59;11.80;;;9.60;;
5153;SDS011;2595;53.584;10.084;2023-03-01T04:32:24;12.37;;;11.13;;
5153;SDS011;2595;53.584;10.084;2023-03-01T04:34:50;13.40;;;9.47;;
5153;SDS011;2595;53.584;10.084;2023-03-01T04:37:15;10.97;;;9.83;;
5153;SDS011;2595;53.584;10.084;2023-03-01T04:39:41;11.80;;;10.70;;
5153;SDS011;2595;53.584;10.084;2023-03-01T04:42:11;10.43;;;9.40;;
5153;SDS011;2595;53.584;10.084;2023-03-01T04:44:37;9.83;;;9.03;;
5153;SDS011;2595;53.584;10.084;2023-03-01T04:47:03;11.10;;;9.30;;
5153;SDS011;2595;53.584;10.084;2023-03-01T04:49:29;10.43;;;9.53;;
5153;SDS011;2595;53.584;10.084;2023-03-01T04:51:55;10.70;;;9.63;;
5153;SDS011;2595;53.584;10.084;2023-03-01T04:54:23;10.53;;;9.53;;
5153;SDS011;2595;53.584;10.084;2023-03-01T04:56:48;10.03;;;9.13;;
5153;SDS011;2595;53.584;10.084;2023-03-01T04:59:14;11.33;;;8.57;;
5153;SDS011;2595;53.584;10.084;2023-03-01T05:01:40;13.20;;;9.90;;
5153;SDS011;2595;53.584;10.084;2023-03-01T05:04:07;10.43;;;9.30;;
5153;SDS011;2595;53.584;10.084;2023-03-01T05:06:37;14.50;;;9.97;;
5153;SDS011;2595;53.584;10.084;2023-03-01T05:09:04;9.37;;;8.63;;
5153;SDS011;2595;53.584;10.084;2023-03-01T05:11:30;10.00;;;9.10;;
5153;SDS011;2595;53.584;10.084;2023-03-01T05:13:58;10.37;;;9.47;;
5153;SDS011;2595;53.584;10.084;2023-03-01T05:16:24;16.03;;;10.13;;
5153;SDS011;2595;53.584;10.084;2023-03-01T05:18:50;12.03;;;9.93;;
5153;SDS011;2595;53.584;10.084;2023-03-01T05:21:16;14.07;;;9.23;;
5153;SDS011;2595;53.584;10.084;2023-03-01T05:23:41;10.30;;;9.40;;
5153;SDS011;2595;53.584;10.084;2023-03-01T05:26:08;9.60;;;8.50;;
5153;SDS011;2595;53.584;10.084;2023-03-01T05:28:34;10.47;;;8.57;;
5153;SDS011;2595;53.584;10.084;2023-03-01T05:31:00;10.87;;;9.70;;
5153;SDS011;2595;53.584;10.084;2023-03-01T05:33:26;11.87;;;10.63;;
5153;SDS011;2595;53.584;10.084;2023-03-01T05:35:52;12.40;;;9.77;;
5153;SDS011;2595;53.584;10.084;2023-03-01T05:38:18;9.00;;;8.20;;
5153;SDS011;2595;53.584;10.084;2023-03-01T05:40:46;12.20;;;9.90;;
5153;SDS011;2595;53.584;10.084;2023-03-01T05:43:13;10.50;;;9.50;;
5153;SDS011;2595;53.584;10.084;2023-03-01T05:45:41;14.83;;;10.60;;
5153;SDS011;2595;53.584;10.084;2023-03-01T05:48:15;13.10;;;10.70;;
5153;SDS011;2595;53.584;10.084;2023-03-01T05:51:00;10.53;;;9.20;;
5153;SDS011;2595;53.584;10.084;2023-03-01T05:53:26;14.43;;;10.10;;
5153;SDS011;2595;53.584;10.084;2023-03-01T05:55:52;12.67;;;9.03;;
5153;SDS011;2595;53.584;10.084;2023-03-01T05:58:18;14.50;;;10.23;;
5153;SDS011;2595;53.584;10.084;2023-03-01T06:00:45;9.70;;;8.80;;
5153;SDS011;2595;53.584;10.084;2023-03-01T06:03:13;11.83;;;10.83;;
5153;SDS011;2595;53.584;10.084;2023-03-01T06:05:40;11.47;;;10.33;;
5153;SDS011;2595;53.584;10.084;2023-03-01T06:08:06;9.60;;;8.80;;
5153;SDS011;2595;53.584;10.084;2023-03-01T06:10:32;15.07;;;9.90;;
5153;SDS011;2595;53.584;10.084;2023-03-01T06:12:58;12.70;;;9.77;;
5153;SDS011;2595;53.584;10.084;2023-03-01T06:15:24;10.13;;;9.20;;
5153;SDS011;2595;53.584;10.084;2023-03-01T06:17:50;10.30;;;8.63;;
5153;SDS011;2595;53.584;10.084;2023-03-01T06:20:17;14.30;;;10.00;;
5153;SDS011;2595;53.584;10.084;2023-03-01T06:22:46;14.77;;;8.77;;
5153;SDS011;2595;53.584;10.084;2023-03-01T06:25:15;13.87;;;10.47;;
5153;SDS011;2595;53.584;10.084;2023-03-01T06:27:43;10.63;;;8.57;;
5153;SDS011;2595;53.584;10.084;2023-03-01T06:30:12;12.10;;;9.40;;
5153;SDS011;2595;53.584;10.084;2023-03-01T06:32:40;7.77;;;7.10;;
5153;SDS011;2595;53.584;10.084;2023-03-01T06:35:07;9.17;;;8.37;;
5153;SDS011;2595;53.584;10.084;2023-03-01T06:37:34;9.10;;;8.30;;
5153;SDS011;2595;53.584;10.084;2023-03-01T06:40:00;10.67;;;8.70;;
5153;SDS011;2595;53.584;10.084;2023-03-01T06:42:32;9.13;;;8.23;;
5153;SDS011;2595;53.584;10.084;2023-03-01T06:44:57;10.87;;;7.93;;
5153;SDS011;2595;53.584;10.084;2023-03-01T06:47:23;8.73;;;7.87;;
5153;SDS011;2595;53.584;10.084;2023-03-01T06:49:48;9.37;;;8.40;;
5153;SDS011;2595;53.584;10.084;2023-03-01T06:52:14;9.47;;;8.53;;
5153;SDS011;2595;53.584;10.084;2023-03-01T06:54:39;10.20;;;9.20;;
5153;SDS011;2595;53.584;10.084;2023-03-01T06:57:05;9.60;;;8.70;;
5153;SDS011;2595;53.584;10.084;2023-03-01T06:59:30;9.57;;;8.87;;
5153;SDS011;2595;53.584;10.084;2023-03-01T07:01:56;7.73;;;7.03;;
5153;SDS011;2595;53.584;10.084;2023-03-01T07:04:22;7.03;;;6.50;;
5153;SDS011;2595;53.584;10.084;2023-03-01T07:06:47;5.80;;;5.37;;
5153;SDS011;2595;53.584;10.084;2023-03-01T07:09:20;7.00;;;6.30;;
5153;SDS011;2595;53.584;10.084;2023-03-01T07:11:47;6.10;;;5.70;;
5153;SDS011;2595;53.584;10.084;2023-03-01T07:14:12;6.33;;;5.73;;
5153;SDS011;2595;53.584;10.084;2023-03-01T07:16:38;6.10;;;5.70;;
5153;SDS011;2595;53.584;10.084;2023-03-01T07:19:04;10.93;;;5.70;;
5153;SDS011;2595;53.584;10.084;2023-03-01T07:21:30;5.10;;;4.70;;
5153;SDS011;2595;53.584;10.084;2023-03-01T07:23:56;6.53;;;5.93;;
5153;SDS011;2595;53.584;10.084;2023-03-01T07:26:21;8.33;;;5.27;;
5153;SDS011;2595;53.584;10.084;2023-03-01T07:28:47;9.77;;;5.70;;
5153;SDS011;2595;53.584;10.084;2023-03-01T07:31:12;5.77;;;5.27;;
5153;SDS011;2595;53.584;10.084;2023-03-01T07:33:38;6.70;;;6.10;;
5153;SDS011;2595;53.584;10.084;2023-03-01T07:36:04;6.30;;;5.80;;
5153;SDS011;2595;53.584;10.084;2023-03-01T07:38:31;6.77;;;5.70;;
5153;SDS011;2595;53.584;10.084;2023-03-01T07:41:00;7.50;;;7.00;;
5153;SDS011;2595;53.584;10.084;2023-03-01T07:43:27;6.70;;;6.10;;
5153;SDS011;2595;53.584;10.084;2023-03-01T07:45:53;7.00;;;5.93;;
5153;SDS011;2595;53.584;10.084;2023-03-01T07:48:19;6.53;;;5.60;;
5153;SDS011;2595;53.584;10.084;2023-03-01T07:50:44;7.23;;;6.50;;
5153;SDS011;2595;53.584;10.084;2023-03-01T07:53:10;6.53;;;5.87;;
5153;SDS011;2595;53.584;10.084;2023-03-01T07:55:36;7.43;;;6.70;;
5153;SDS011;2595;53.584;10.084;2023-03-01T07:58:02;9.20;;;8.40;;
5153;SDS011;2595;53.584;10.084;2023-03-01T08:00:27;7.53;;;6.93;;
5153;SDS011;2595;53.584;10.084;2023-03-01T08:02:53;8.60;;;7.67;;
5153;SDS011;2595;53.584;10.084;2023-03-01T08:05:18;9.87;;;8.60;;
5153;SDS011;2595;53.584;10.084;2023-03-01T08:07:44;11.47;;;8.87;;
5153;SDS011;2595;53.584;10.084;2023-03-01T08:10:10;8.87;;;8.07;;
5153;SDS011;2595;53.584;10.084;2023-03-01T08:12:36;9.63;;;8.73;;
5153;SDS011;2595;53.584;10.084;2023-03-01T08:15:01;8.90;;;8.30;;
5153;SDS011;2595;53.584;10.084;2023-03-01T08:17:27;9.70;;;8.80;;
5153;SDS011;2595;53.584;10.084;2023-03-01T08:19:52;9.57;;;8.57;;
5153;SDS011;2595;53.584;10.084;2023-03-01T08:22:18;10.93;;;9.83;;
5153;SDS011;2595;53.584;10.084;2023-03-01T08:24:43;11.17;;;9.90;;
5153;SDS011;2595;53.584;10.084;2023-03-01T08:27:09;9.13;;;8.10;;
5153;SDS011;2595;53.584;10.084;2023-03-01T08:29:37;12.43;;;10.10;;
5153;SDS011;2595;53.584;10.084;2023-03-01T08:32:02;12.00;;;10.90;;
5153;SDS011;2595;53.584;10.084;2023-03-01T08:34:28;12.13;;;9.37;;
5153;SDS011;2595;53.584;10.084;2023-03-01T08:36:54;10.83;;;10.03;;
5153;SDS011;2595;53.584;10.084;2023-03-01T08:39:20;11.27;;;9.87;;
5153;SDS011;2595;53.584;10.084;2023-03-01T08:41:46;12.20;;;11.00;;
5153;SDS011;2595;53.584;10.084;2023-03-01T08:44:12;10.23;;;9.37;;
5153;SDS011;2595;53.584;10.084;2023-03-01T08:46:41;10.40;;;9.43;;
5153;SDS011;2595;53.584;10.084;2023-03-01T08:49:08;10.17;;;9.27;;
5153;SDS011;2595;53.584;10.084;2023-03-01T08:51:36;13.43;;;11.37;;
5153;SDS011;2595;53.584;10.084;2023-03-01T08:54:06;11.47;;;10.43;;
5153;SDS011;2595;53.584;10.084;2023-03-01T08:56:36;16.60;;;10.57;;
5153;SDS011;2595;53.584;10.084;2023-03-01T08:59:01;13.57;;;9.50;;
5153;SDS011;2595;53.584;10.084;2023-03-01T09:01:27;10.03;;;9.03;;
5153;SDS011;2595;53.584;10.084;2023-03-01T09:03:53;9.47;;;8.67;;
5153;SDS011;2595;53.584;10.084;2023-03-01T09:06:18;13.33;;;10.80;;
5153;SDS011;2595;53.584;10.084;2023-03-01T09:08:45;10.40;;;9.50;;
5153;SDS011;2595;53.584;10.084;2023-03-01T09:11:14;11.50;;;10.40;;
5153;SDS011;2595;53.584;10.084;2023-03-01T09:13:41;14.93;;;11.03;;
5153;SDS011;2595;53.584;10.084;2023-03-01T09:16:08;13.93;;;11.23;;
5153;SDS011;2595;53.584;10.084;2023-03-01T09:18:34;12.97;;;10.70;;
5153;SDS011;2595;53.584;10.084;2023-03-01T09:21:04;13.83;;;10.47;;
5153;SDS011;2595;53.584;10.084;2023-03-01T09:23:38;11.60;;;10.50;;
5153;SDS011;2595;53.584;10.084;2023-03-01T09:26:08;15.03;;;11.07;;
5153;SDS011;2595;53.584;10.084;2023-03-01T09:28:36;11.73;;;10.63;;
5153;SDS011;2595;53.584;10.084;2023-03-01T09:31:02;14.90;;;13.50;;
5153;SDS011;2595;53.584;10.084;2023-03-01T09:33:29;12.13;;;10.00;;
5153;SDS011;2595;53.584;10.084;2023-03-01T09:35:59;15.13;;;11.47;;
5153;SDS011;2595;53.584;10.084;2023-03-01T09:38:26;12.97;;;11.70;;
5153;SDS011;2595;53.584;10.084;2023-03-01T09:40:52;11.93;;;11.00;;
5153;SDS011;2595;53.584;10.084;2023-03-01T09:43:21;12.93;;;11.63;;
5153;SDS011;2595;53.584;10.084;2023-03-01T09:46:19;11.87;;;10.87;;
5153;SDS011;2595;53.584;10.084;2023-03-01T09:49:01;11.97;;;10.90;;
5153;SDS011;2595;53.584;10.084;2023-03-01T09:51:32;13.63;;;12.23;;
5153;SDS011;2595;53.584;10.084;2023-03-01T09:54:03;10.53;;;9.70;;
5153;SDS011;2595;53.584;10.084;2023-03-01T10:02:05;20.77;;;11.50;;
5153;SDS011;2595;53.584;10.084;2023-03-01T10:04:47;12.47;;;10.40;;
5153;SDS011;2595;53.584;10.084;2023-03-01T10:07:17;13.53;;;10.90;;
5153;SDS011;2595;53.584;10.084;2023-03-01T10:10:08;13.07;;;10.60;;
5153;SDS011;2595;53.584;10.084;2023-03-01T10:12:41;13.70;;;10.90;;
5153;SDS011;2595;53.584;10.084;2023-03-01T10:15:14;11.43;;;10.27;;
5153;SDS011;2595;53.584;10.084;2023-03-01T10:17:52;11.37;;;10.10;;
5153;SDS011;2595;53.584;10.084;2023-03-01T10:20:24;13.87;;;8.87;;
5153;SDS011;2595;53.584;10.084;2023-03-01T10:22:52;9.10;;;8.30;;
5153;SDS011;2595;53.584;10.084;2023-03-01T10:30:58;9.70;;;8.80;;
5153;SDS011;2595;53.584;10.084;2023-03-01T10:33:26;9.97;;;9.17;;
5153;SDS011;2595;53.584;10.084;2023-03-01T10:35:55;9.60;;;7.70;;
5153;SDS011;2595;53.584;10.084;2023-03-01T10:38:21;9.60;;;8.47;;
5153;SDS011;2595;53.584;10.084;2023-03-01T10:40:54;9.17;;;8.27;;
5153;SDS011;2595;53.584;10.084;2023-03-01T10:43:21;8.70;;;8.00;;
5153;SDS011;2595;53.584;10.084;2023-03-01T10:45:48;9.80;;;9.00;;
5153;SDS011;2595;53.584;10.084;2023-03-01T10:48:18;9.10;;;8.20;;
5153;SDS011;2595;53.584;10.084;2023-03-01T10:53:27;10.40;;;8.20;;
5153;SDS011;2595;53.584;10.084;2023-03-01T10:58:31;9.30;;;8.50;;
5153;SDS011;2595;53.584;10.084;2023-03-01T11:01:00;9.23;;;8.23;;
5153;SDS011;2595;53.584;10.084;2023-03-01T11:03:29;9.70;;;8.90;;
5153;SDS011;2595;53.584;10.084;2023-03-01T11:06:05;10.80;;;9.77;;
5153;SDS011;2595;53.584;10.084;2023-03-01T11:08:37;10.23;;;8.63;;
5153;SDS011;2595;53.584;10.084;2023-03-01T11:14:17;9.80;;;8.70;;
5153;SDS011;2595;53.584;10.084;2023-03-01T11:19:29;10.83;;;9.80;;
5153;SDS011;2595;53.584;10.084;2023-03-01T11:21:57;8.17;;;7.47;;
5153;SDS011;2595;53.584;10.084;2023-03-01T11:24:39;9.50;;;7.97;;
5153;SDS011;2595;53.584;10.084;2023-03-01T11:27:13;9.80;;;8.80;;
5153;SDS011;2595;53.584;10.084;2023-03-01T11:35:42;7.40;;;6.80;;
5153;SDS011;2595;53.584;10.084;2023-03-01T11:38:29;8.77;;;8.03;;
5153;SDS011;2595;53.584;10.084;2023-03-01T11:41:00;7.93;;;7.33;;
5153;SDS011;2595;53.584;10.084;2023-03-01T11:43:41;8.90;;;7.93;;
5153;SDS011;2595;53.584;10.084;2023-03-01T12:08:45;8.63;;;7.80;;
5153;SDS011;2595;53.584;10.084;2023-03-01T12:22:07;9.13;;;8.30;;
5153;SDS011;2595;53.584;10.084;2023-03-01T12:24:50;9.70;;;7.80;;
5153;SDS011;2595;53.584;10.084;2023-03-01T12:34:01;8.57;;;7.80;;
5153;SDS011;2595;53.584;10.084;2023-03-01T12:42:23;6.03;;;5.63;;
5153;SDS011;2595;53.584;10.084;2023-03-01T12:50:38;6.10;;;5.77;;
5153;SDS011;2595;53.584;10.084;2023-03-01T12:53:07;6.63;;;6.20;;
5153;SDS011;2595;53.584;10.084;2023-03-01T12:55:48;14.30;;;4.70;;
5153;SDS011;2595;53.584;10.084;2023-03-01T13:04:16;8.30;;;5.80;;
5153;SDS011;2595;53.584;10.084;2023-03-01T13:06:55;5.73;;;5.33;;
5153;SDS011;2595;53.584;10.084;2023-03-01T13:15:35;6.10;;;5.70;;
5153;SDS011;2595;53.584;10.084;2023-03-01T13:20:34;4.97;;;4.63;;
5153;SDS011;2595;53.584;10.084;2023-03-01T13:31:02;6.27;;;5.80;;
5153;SDS011;2595;53.584;10.084;2023-03-01T13:33:33;6.70;;;6.13;;
5153;SDS011;2595;53.584;10.084;2023-03-01T13:36:46;6.17;;;5.67;;
5153;SDS011;2595;53.584;10.084;2023-03-01T13:39:13;6.93;;;4.93;;
5153;SDS011;2595;53.584;10.084;2023-03-01T13:41:58;5.10;;;4.80;;
5153;SDS011;2595;53.584;10.084;2023-03-01T13:44:34;5.70;;;4.13;;
5153;SDS011;2595;53.584;10.084;2023-03-01T13:49:48;5.30;;;4.90;;
5153;SDS011;2595;53.584;10.084;2023-03-01T13:57:42;6.30;;;3.90;;
5153;SDS011;2595;53.584;10.084;2023-03-01T14:03:10;4.37;;;3.90;;
5153;SDS011;2595;53.584;10.084;2023-03-01T14:05:42;4.20;;;3.90;;
5153;SDS011;2595;53.584;10.084;2023-03-01T14:08:23;4.57;;;4.17;;
5153;SDS011;2595;53.584;10.084;2023-03-01T14:20:12;7.93;;;4.40;;
5153;SDS011;2595;53.584;10.084;2023-03-01T14:22:42;4.23;;;3.83;;
5153;SDS011;2595;53.584;10.084;2023-03-01T14:27:59;4.17;;;3.97;;
5153;SDS011;2595;53.584;10.084;2023-03-01T14:30:38;3.90;;;3.60;;
5153;SDS011;2595;53.584;10.084;2023-03-01T14:33:18;3.87;;;3.67;;
5153;SDS011;2595;53.584;10.084;2023-03-01T14:38:29;4.57;;;4.17;;
5153;SDS011;2595;53.584;10.084;2023-03-01T14:40:58;4.60;;;4.20;;
5153;SDS011;2595;53.584;10.084;2023-03-01T14:43:26;4.23;;;3.83;;
5153;SDS011;2595;53.584;10.084;2023-03-01T14:45:54;4.97;;;4.60;;
5153;SDS011;2595;53.584;10.084;2023-03-01T14:48:20;4.70;;;4.40;;
5153;SDS011;2595;53.584;10.084;2023-03-01T14:50:46;4.83;;;4.50;;
5153;SDS011;2595;53.584;10.084;2023-03-01T14:53:17;5.10;;;4.70;;
5153;SDS011;2595;53.584;10.084;2023-03-01T14:55:47;6.33;;;5.37;;
5153;SDS011;2595;53.584;10.084;2023-03-01T14:58:18;5.27;;;4.87;;
5153;SDS011;2595;53.584;10.084;2023-03-01T15:01:04;5.90;;;5.50;;
5153;SDS011;2595;53.584;10.084;2023-03-01T15:03:36;6.73;;;6.17;;
5153;SDS011;2595;53.584;10.084;2023-03-01T15:06:06;6.00;;;5.70;;
5153;SDS011;2595;53.584;10.084;2023-03-01T15:08:33;5.30;;;5.00;;
5153;SDS011;2595;53.584;10.084;2023-03-01T15:11:05;5.97;;;5.37;;
5153;SDS011;2595;53.584;10.084;2023-03-01T15:13:47;5.27;;;4.97;;
5153;SDS011;2595;53.584;10.084;2023-03-01T15:16:14;6.90;;;6.30;;
5153;SDS011;2595;53.584;10.084;2023-03-01T15:18:48;5.20;;;4.50;;
5153;SDS011;2595;53.584;10.084;2023-03-01T15:23:54;5.60;;;5.20;;
5153;SDS011;2595;53.584;10.084;2023-03-01T15:26:30;4.53;;;4.30;;
5153;SDS011;2595;53.584;10.084;2023-03-01T15:28:59;7.33;;;6.23;;
5153;SDS011;2595;53.584;10.084;2023-03-01T15:31:27;4.87;;;4.57;;
5153;SDS011;2595;53.584;10.084;2023-03-01T15:36:50;5.73;;;5.33;;
5153;SDS011;2595;53.584;10.084;2023-03-01T15:42:05;6.83;;;6.20;;
5153;SDS011;2595;53.584;10.084;2023-03-01T15:45:07;5.03;;;4.72;;
5153;SDS011;2595;53.584;10.084;2023-03-01T15:47:33;9.43;;;6.27;;
5153;SDS011;2595;53.584;10.084;2023-03-01T15:50:00;4.87;;;4.57;;
5153;SDS011;2595;53.584;10.084;2023-03-01T15:52:28;6.03;;;5.73;;
5153;SDS011;2595;53.584;10.084;2023-03-01T15:55:02;4.80;;;4.50;;
5153;SDS011;2595;53.584;10.084;2023-03-01T15:57:30;4.53;;;4.20;;
5153;SDS011;2595;53.584;10.084;2023-03-01T15:59:55;6.13;;;5.63;;
5153;SDS011;2595;53.584;10.084;2023-03-01T16:02:22;5.40;;;5.10;;
5153;SDS011;2595;53.584;10.084;2023-03-01T16:04:49;5.33;;;4.90;;
5153;SDS011;2595;53.584;10.084;2023-03-01T16:07:15;4.57;;;4.27;;
5153;SDS011;2595;53.584;10.084;2023-03-01T16:09:41;6.87;;;5.47;;
5153;SDS011;2595;53.584;10.084;2023-03-01T16:12:11;6.70;;;6.07;;
5153;SDS011;2595;53.584;10.084;2023-03-01T16:14:40;7.50;;;6.90;;
5153;SDS011;2595;53.584;10.084;2023-03-01T16:17:05;7.10;;;6.63;;
5153;SDS011;2595;53.584;10.084;2023-03-01T16:19:33;7.17;;;6.57;;
5153;SDS011;2595;53.584;10.084;2023-03-01T16:21:58;7.53;;;6.80;;
5153;SDS011;2595;53.584;10.084;2023-03-01T16:24:24;9.03;;;8.30;;
5153;SDS011;2595;53.584;10.084;2023-03-01T16:26:50;11.80;;;10.60;;
5153;SDS011;2595;53.584;10.084;2023-03-01T16:29:16;12.70;;;11.40;;
5153;SDS011;2595;53.584;10.084;2023-03-01T16:31:42;15.07;;;11.63;;
5153;SDS011;2595;53.584;10.084;2023-03-01T16:34:07;14.37;;;12.20;;
5153;SDS011;2595;53.584;10.084;2023-03-01T16:36:33;8.57;;;7.77;;
5153;SDS011;2595;53.584;10.084;2023-03-01T16:38:59;10.00;;;9.03;;
5153;SDS011;2595;53.584;10.084;2023-03-01T16:41:26;21.43;;;15.90;;
5153;SDS011;2595;53.584;10.084;2023-03-01T16:43:52;9.93;;;9.10;;
5153;SDS011;2595;53.584;10.084;2023-03-01T16:46:23;8.63;;;7.83;;
5153;SDS011;2595;53.584;10.084;2023-03-01T16:48:51;8.80;;;7.93;;
5153;SDS011;2595;53.584;10.084;2023-03-01T16:51:17;12.67;;;8.00;;
5153;SDS011;2595;53.584;10.084;2023-03-01T16:53:44;17.20;;;13.77;;
5153;SDS011;2595;53.584;10.084;2023-03-01T16:56:10;9.90;;;8.90;;
5153;SDS011;2595;53.584;10.084;2023-03-01T16:58:37;7.13;;;6.70;;
5153;SDS011;2595;53.584;10.084;2023-03-01T17:01:07;8.70;;;6.60;;
5153;SDS011;2595;53.584;10.084;2023-03-01T17:03:38;6.10;;;5.50;;
5153;SDS011;2595;53.584;10.084;2023-03-01T17:06:05;6.57;;;6.07;;
5153;SDS011;2595;53.584;10.084;2023-03-01T17:08:32;7.20;;;6.60;;
5153;SDS011;2595;53.584;10.084;2023-03-01T17:11:05;6.80;;;6.30;;
5153;SDS011;2595;53.584;10.084;2023-03-01T17:13:33;6.20;;;5.70;;
5153;SDS011;2595;53.584;10.084;2023-03-01T17:16:00;5.80;;;5.40;;
5153;SDS011;2595;53.584;10.084;2023-03-01T17:18:27;5.80;;;5.40;;
5153;SDS011;2595;53.584;10.084;2023-03-01T17:20:52;5.67;;;5.37;;
5153;SDS011;2595;53.584;10.084;2023-03-01T17:23:18;5.70;;;5.40;;
5153;SDS011;2595;53.584;10.084;2023-03-01T17:25:43;6.13;;;5.83;;